createdAt,value
2023-04-08T00:00:33.598Z,3.10
2023-04-08T00:03:00.950Z,3.93
2023-04-08T00:05:28.265Z,2.80
2023-04-08T00:07:55.554Z,2.13
2023-04-08T00:10:22.818Z,2.47
2023-04-08T00:12:49.933Z,2.37
2023-04-08T00:15:17.259Z,2.90
2023-04-08T00:17:45.381Z,3.10
2023-04-08T00:20:12.578Z,2.87
2023-04-08T00:22:39.692Z,2.23
2023-04-08T00:25:07.141Z,4.57
2023-04-08T00:27:34.366Z,2.43
2023-04-08T00:30:03.010Z,2.37
2023-04-08T00:32:30.264Z,3.63
2023-04-08T00:34:57.429Z,2.40
2023-04-08T00:37:25.047Z,2.43
2023-04-08T00:39:54.182Z,3.20
2023-04-08T00:42:22.059Z,3.30
2023-04-08T00:44:50.568Z,3.03
2023-04-08T00:47:17.827Z,2.57
2023-04-08T00:49:45.354Z,2.23
2023-04-08T00:52:12.714Z,3.00
2023-04-08T00:54:39.871Z,3.77
2023-04-08T00:57:07.254Z,2.63
2023-04-08T00:59:36.131Z,2.87
2023-04-08T01:02:14.998Z,2.87
2023-04-08T01:05:01.137Z,3.77
2023-04-08T01:07:29.709Z,2.40
2023-04-08T01:09:58.161Z,2.47
2023-04-08T01:12:29.498Z,2.70
2023-04-08T01:14:59.974Z,2.47
2023-04-08T01:17:27.186Z,3.60
2023-04-08T01:19:55.673Z,2.30
2023-04-08T01:22:29.767Z,3.83
2023-04-08T01:25:01.653Z,3.43
2023-04-08T01:27:31.704Z,3.77
2023-04-08T01:29:59.413Z,2.60
2023-04-08T01:32:27.587Z,3.40
2023-04-08T01:34:55.991Z,2.47
2023-04-08T01:37:23.305Z,4.03
2023-04-08T01:39:51.006Z,3.20
2023-04-08T01:42:18.528Z,3.10
2023-04-08T01:44:46.444Z,3.77
2023-04-08T01:47:14.428Z,2.90
2023-04-08T01:49:41.950Z,3.27
2023-04-08T01:52:10.430Z,3.10
2023-04-08T01:54:37.648Z,3.70
2023-04-08T01:57:09.174Z,3.83
2023-04-08T01:59:36.958Z,3.30
2023-04-08T02:02:06.428Z,2.73
2023-04-08T02:04:34.740Z,3.80
2023-04-08T02:07:02.913Z,3.17
2023-04-08T02:09:30.359Z,2.67
2023-04-08T02:11:57.861Z,3.17
2023-04-08T02:14:26.227Z,3.73
2023-04-08T02:17:05.411Z,2.67
2023-04-08T02:19:36.770Z,3.20
2023-04-08T02:22:06.839Z,3.70
2023-04-08T02:24:34.990Z,3.03
2023-04-08T02:27:04.099Z,3.57
2023-04-08T02:29:32.295Z,3.87
2023-04-08T02:32:02.154Z,2.93
2023-04-08T02:34:30.592Z,3.87
2023-04-08T02:36:57.866Z,3.67
2023-04-08T02:39:31.879Z,4.30
2023-04-08T02:41:59.050Z,3.57
2023-04-08T02:44:26.168Z,2.77
2023-04-08T02:46:53.293Z,4.90
2023-04-08T02:49:20.775Z,3.87
2023-04-08T02:51:47.952Z,4.27
2023-04-08T02:54:15.413Z,3.97
2023-04-08T02:56:42.723Z,3.70
2023-04-08T02:59:09.874Z,3.70
2023-04-08T03:01:37.122Z,2.77
2023-04-08T03:04:04.409Z,3.10
2023-04-08T03:06:32.190Z,3.70
2023-04-08T03:08:59.350Z,3.83
2023-04-08T03:11:26.656Z,3.87
2023-04-08T03:13:53.843Z,2.43
2023-04-08T03:16:21.369Z,3.40
2023-04-08T03:18:50.404Z,4.77
2023-04-08T03:21:17.899Z,4.70
2023-04-08T03:23:45.652Z,4.23
2023-04-08T03:26:12.781Z,3.27
2023-04-08T03:28:39.908Z,3.60
2023-04-08T03:31:07.319Z,5.07
2023-04-08T03:33:34.450Z,3.33
2023-04-08T03:36:01.621Z,5.17
2023-04-08T03:38:28.821Z,5.20
2023-04-08T03:40:55.939Z,4.30
2023-04-08T03:43:23.242Z,3.37
2023-04-08T03:45:50.415Z,4.73
2023-04-08T03:48:17.544Z,3.80
2023-04-08T03:50:44.669Z,3.57
2023-04-08T03:53:12.872Z,4.00
2023-04-08T03:55:40.119Z,4.93
2023-04-08T03:58:07.268Z,3.73
2023-04-08T04:00:34.413Z,3.97
2023-04-08T04:03:01.992Z,4.23
2023-04-08T04:05:29.887Z,5.10
2023-04-08T04:07:58.387Z,3.73
2023-04-08T04:10:25.592Z,3.03
2023-04-08T04:12:52.718Z,5.23
2023-04-08T04:15:19.886Z,4.27
2023-04-08T04:17:49.072Z,3.90
2023-04-08T04:20:16.340Z,3.97
2023-04-08T04:22:43.527Z,5.03
2023-04-08T04:25:11.093Z,3.50
2023-04-08T04:27:38.261Z,4.43
2023-04-08T04:30:05.725Z,4.83
2023-04-08T04:32:32.960Z,5.13
2023-04-08T04:35:00.248Z,5.33
2023-04-08T04:37:27.538Z,5.37
2023-04-08T04:39:54.704Z,4.10
2023-04-08T04:42:21.827Z,4.57
2023-04-08T04:44:49.388Z,3.97
2023-04-08T04:47:16.573Z,4.20
2023-04-08T04:49:43.796Z,5.77
2023-04-08T04:52:11.633Z,5.27
2023-04-08T04:54:38.772Z,4.83
2023-04-08T04:57:06.111Z,5.00
2023-04-08T04:59:33.260Z,4.53
2023-04-08T05:02:00.511Z,3.40
2023-04-08T05:04:27.822Z,4.73
2023-04-08T05:06:54.987Z,4.37
2023-04-08T05:09:22.186Z,3.27
2023-04-08T05:11:49.293Z,6.37
2023-04-08T05:14:16.410Z,4.63
2023-04-08T05:16:43.582Z,4.73
2023-04-08T05:19:10.748Z,5.87
2023-04-08T05:21:37.905Z,4.73
2023-04-08T05:24:05.442Z,5.47
2023-04-08T05:26:33.012Z,6.13
2023-04-08T05:29:00.341Z,5.30
2023-04-08T05:31:27.668Z,6.23
2023-04-08T05:33:54.842Z,5.47
2023-04-08T05:36:22.022Z,5.43
2023-04-08T05:38:49.367Z,5.87
2023-04-08T05:41:16.782Z,7.20
2023-04-08T05:43:43.953Z,5.63
2023-04-08T05:46:11.602Z,7.07
2023-04-08T05:48:38.772Z,5.90
2023-04-08T05:51:05.913Z,5.73
2023-04-08T05:53:33.035Z,5.10
2023-04-08T05:56:00.251Z,5.63
2023-04-08T05:58:27.393Z,6.03
2023-04-08T06:00:55.535Z,5.90
2023-04-08T06:03:22.932Z,4.93
2023-04-08T06:05:50.336Z,5.93
2023-04-08T06:08:17.463Z,5.50
2023-04-08T06:10:51.108Z,6.60
2023-04-08T06:13:18.430Z,6.10
2023-04-08T06:15:45.592Z,8.30
2023-04-08T06:18:12.723Z,5.17
2023-04-08T06:20:39.852Z,5.70
2023-04-08T06:23:06.979Z,5.93
2023-04-08T06:25:34.088Z,6.57
2023-04-08T06:28:01.246Z,6.23
2023-04-08T06:30:28.449Z,6.60
2023-04-08T06:32:55.722Z,5.77
2023-04-08T06:35:22.997Z,6.90
2023-04-08T06:37:50.229Z,6.40
2023-04-08T06:40:17.412Z,6.10
2023-04-08T06:42:44.562Z,5.03
2023-04-08T06:45:12.277Z,7.37
2023-04-08T06:47:39.454Z,7.73
2023-04-08T06:50:06.979Z,6.17
2023-04-08T06:52:34.195Z,7.27
2023-04-08T06:55:01.569Z,6.03
2023-04-08T06:57:28.762Z,7.37
2023-04-08T06:59:56.472Z,5.47
2023-04-08T07:02:23.773Z,7.00
2023-04-08T07:04:50.992Z,5.40
2023-04-08T07:07:18.293Z,4.93
2023-04-08T07:09:46.513Z,5.80
2023-04-08T07:12:13.885Z,5.40
2023-04-08T07:14:41.038Z,5.97
2023-04-08T07:17:08.541Z,5.23
2023-04-08T07:19:36.047Z,4.40
2023-04-08T07:22:03.220Z,4.57
2023-04-08T07:24:30.399Z,5.90
2023-04-08T07:26:58.206Z,7.47
2023-04-08T07:29:25.410Z,6.03
2023-04-08T07:31:52.546Z,4.97
2023-04-08T07:34:19.708Z,5.37
2023-04-08T07:36:46.906Z,4.80
2023-04-08T07:39:14.101Z,5.87
2023-04-08T07:41:41.336Z,4.87
2023-04-08T07:44:08.448Z,6.53
2023-04-08T07:46:39.047Z,7.07
2023-04-08T07:49:06.761Z,5.97
2023-04-08T07:51:33.894Z,6.57
2023-04-08T07:54:01.172Z,6.60
2023-04-08T07:56:28.369Z,5.67
2023-04-08T07:58:55.832Z,8.43
2023-04-08T08:01:23.801Z,5.70
2023-04-08T08:03:52.264Z,6.73
2023-04-08T08:06:20.865Z,6.40
2023-04-08T08:08:48.281Z,5.30
2023-04-08T08:11:15.452Z,6.97
2023-04-08T08:13:42.759Z,5.80
2023-04-08T08:16:11.584Z,6.23
2023-04-08T08:18:40.246Z,5.87
2023-04-08T08:21:07.680Z,5.70
2023-04-08T08:23:34.799Z,5.83
2023-04-08T08:26:03.056Z,5.83
2023-04-08T08:28:30.255Z,5.97
2023-04-08T08:30:57.531Z,8.17
2023-04-08T08:33:25.379Z,6.33
2023-04-08T08:35:52.793Z,5.80
2023-04-08T08:38:20.396Z,6.03
2023-04-08T08:40:47.651Z,5.63
2023-04-08T08:43:14.914Z,6.97
2023-04-08T08:45:42.566Z,5.80
2023-04-08T08:48:09.926Z,6.63
2023-04-08T08:50:37.155Z,7.13
2023-04-08T08:53:04.524Z,6.80
2023-04-08T08:56:02.145Z,5.73
2023-04-08T08:58:23.311Z,11.20
2023-04-08T09:00:50.678Z,6.20
2023-04-08T09:03:18.024Z,5.93
2023-04-08T09:05:55.577Z,5.50
2023-04-08T09:08:30.380Z,6.03
2023-04-08T09:11:11.465Z,6.47
2023-04-08T09:13:38.608Z,5.50
2023-04-08T09:16:07.313Z,6.13
2023-04-08T09:18:34.656Z,5.23
2023-04-08T09:21:02.342Z,5.53
2023-04-08T09:23:39.384Z,7.97
2023-04-08T09:26:13.369Z,7.37
2023-04-08T09:28:41.814Z,7.33
2023-04-08T09:31:22.402Z,5.97
2023-04-08T09:33:55.537Z,7.03
2023-04-08T09:36:22.809Z,6.30
2023-04-08T09:38:50.599Z,5.73
2023-04-08T09:41:18.391Z,6.27
2023-04-08T09:43:51.971Z,5.57
2023-04-08T09:46:26.609Z,5.63
2023-04-08T09:48:57.745Z,5.47
2023-04-08T09:51:25.163Z,5.63
2023-04-08T09:54:02.056Z,6.30
2023-04-08T09:56:31.788Z,8.00
2023-04-08T09:59:00.823Z,4.93
2023-04-08T10:01:39.761Z,6.83
2023-04-08T10:04:10.916Z,5.83
2023-04-08T10:06:39.107Z,6.90
2023-04-08T10:09:07.400Z,5.37
2023-04-08T10:11:34.804Z,8.77
2023-04-08T10:14:02.175Z,5.60
2023-04-08T10:16:29.953Z,6.57
2023-04-08T10:18:57.707Z,5.43
2023-04-08T10:21:37.558Z,6.63
2023-04-08T10:24:07.823Z,5.97
2023-04-08T10:26:36.314Z,6.73
2023-04-08T10:29:18.729Z,6.30
2023-04-08T10:31:52.865Z,6.80
2023-04-08T10:34:21.487Z,7.57
2023-04-08T10:36:49.863Z,9.73
2023-04-08T10:39:17.621Z,7.13
2023-04-08T10:41:45.486Z,8.27
2023-04-08T10:44:19.396Z,5.97
2023-04-08T10:46:46.931Z,7.60
2023-04-08T10:49:14.479Z,6.07
2023-04-08T10:51:44.009Z,8.40
2023-04-08T10:54:15.197Z,7.63
2023-04-08T10:56:49.468Z,7.20
2023-04-08T10:59:17.770Z,6.50
2023-04-08T11:01:47.621Z,7.67
2023-04-08T11:04:15.811Z,5.80
2023-04-08T11:06:44.128Z,7.53
2023-04-08T11:09:11.951Z,7.57
2023-04-08T11:11:39.187Z,9.73
2023-04-08T11:14:07.098Z,6.57
2023-04-08T11:16:35.061Z,6.50
2023-04-08T11:19:06.513Z,7.07
2023-04-08T11:21:36.256Z,7.50
2023-04-08T11:24:07.216Z,7.20
2023-04-08T11:26:34.589Z,8.17
2023-04-08T11:29:01.827Z,7.95
2023-04-08T11:31:29.611Z,8.65
2023-04-08T11:33:56.777Z,14.38
2023-04-08T11:36:24.041Z,8.18
2023-04-08T11:38:51.376Z,10.70
2023-04-08T11:41:18.527Z,7.68
2023-04-08T11:43:52.488Z,8.90
2023-04-08T11:46:20.569Z,9.80
2023-04-08T11:49:00.759Z,7.18
2023-04-08T11:51:28.588Z,8.48
2023-04-08T11:53:56.788Z,6.85
2023-04-08T11:56:24.915Z,6.75
2023-04-08T11:58:52.288Z,7.28
2023-04-08T12:01:20.017Z,7.10
2023-04-08T12:03:56.894Z,8.02
2023-04-08T12:06:24.836Z,8.30
2023-04-08T12:08:51.948Z,9.55
2023-04-08T12:11:20.224Z,6.70
2023-04-08T12:13:49.808Z,7.95
2023-04-08T12:16:17.849Z,7.18
2023-04-08T12:18:45.110Z,8.55
2023-04-08T12:21:12.322Z,8.05
2023-04-08T12:23:39.476Z,7.50
2023-04-08T12:26:07.340Z,7.20
2023-04-08T12:28:37.558Z,10.07
2023-04-08T12:31:04.846Z,6.45
2023-04-08T12:33:32.354Z,8.23
2023-04-08T12:35:59.637Z,8.23
2023-04-08T12:38:27.263Z,7.00
2023-04-08T12:40:54.833Z,6.72
2023-04-08T12:43:22.124Z,7.03
2023-04-08T12:45:49.342Z,7.20
2023-04-08T12:48:16.534Z,6.65
2023-04-08T12:50:44.079Z,6.55
2023-04-08T12:53:11.572Z,7.47
2023-04-08T12:55:38.731Z,8.35
2023-04-08T12:58:06.109Z,10.23
2023-04-08T13:00:33.521Z,7.65
2023-04-08T13:03:00.830Z,9.75
2023-04-08T13:05:42.078Z,8.23
2023-04-08T13:08:12.387Z,7.97
2023-04-08T13:10:39.653Z,7.90
2023-04-08T13:13:06.831Z,9.88
2023-04-08T13:15:33.980Z,10.60
2023-04-08T13:18:01.340Z,7.50
2023-04-08T13:20:28.668Z,6.68
2023-04-08T13:22:55.799Z,7.65
2023-04-08T13:25:23.052Z,6.95
2023-04-08T13:27:50.286Z,9.07
2023-04-08T13:30:17.450Z,6.22
2023-04-08T13:32:44.773Z,7.55
2023-04-08T13:35:11.984Z,8.32
2023-04-08T13:37:39.134Z,11.38
2023-04-08T13:40:08.692Z,6.90
2023-04-08T13:42:35.922Z,11.35
2023-04-08T13:45:03.036Z,7.30
2023-04-08T13:47:31.146Z,8.38
2023-04-08T13:49:58.336Z,7.57
2023-04-08T13:52:25.620Z,7.90
2023-04-08T13:54:52.736Z,6.77
2023-04-08T13:57:19.886Z,7.40
2023-04-08T13:59:47.028Z,7.73
2023-04-08T14:02:14.246Z,6.57
2023-04-08T14:04:41.455Z,8.43
2023-04-08T14:07:09.179Z,7.30
2023-04-08T14:09:37.003Z,6.67
2023-04-08T14:12:04.197Z,9.23
2023-04-08T14:14:31.465Z,7.57
2023-04-08T14:16:58.715Z,8.60
2023-04-08T14:19:25.921Z,7.53
2023-04-08T14:21:53.072Z,9.63
2023-04-08T14:24:20.205Z,7.07
2023-04-08T14:26:47.421Z,7.70
2023-04-08T14:29:14.589Z,8.37
2023-04-08T14:31:41.765Z,8.60
2023-04-08T14:34:08.952Z,7.80
2023-04-08T14:36:36.188Z,9.67
2023-04-08T14:39:03.522Z,6.97
2023-04-08T14:41:30.659Z,8.03
2023-04-08T14:43:57.862Z,7.03
2023-04-08T14:46:28.788Z,8.13
2023-04-08T14:48:56.418Z,7.07
2023-04-08T14:51:23.619Z,8.37
2023-04-08T14:53:50.809Z,7.50
2023-04-08T14:56:17.929Z,8.13
2023-04-08T14:58:45.093Z,7.17
2023-04-08T15:01:12.301Z,7.33
2023-04-08T15:03:39.638Z,8.17
2023-04-08T15:06:07.966Z,8.77
2023-04-08T15:08:35.308Z,7.17
2023-04-08T15:11:02.538Z,8.97
2023-04-08T15:13:29.671Z,7.87
2023-04-08T15:15:56.916Z,7.30
2023-04-08T15:18:24.092Z,10.80
2023-04-08T15:20:51.552Z,8.20
2023-04-08T15:23:18.742Z,8.73
2023-04-08T15:25:46.402Z,7.20
2023-04-08T15:28:13.553Z,7.87
2023-04-08T15:30:40.841Z,6.50
2023-04-08T15:33:08.275Z,6.90
2023-04-08T15:35:35.551Z,7.70
2023-04-08T15:38:02.691Z,6.30
2023-04-08T15:40:32.183Z,7.13
2023-04-08T15:42:59.304Z,7.03
2023-04-08T15:45:26.621Z,7.47
2023-04-08T15:47:53.884Z,8.70
2023-04-08T15:50:21.242Z,6.77
2023-04-08T15:52:48.400Z,6.80
2023-04-08T15:55:15.529Z,6.70
2023-04-08T15:57:42.946Z,7.23
2023-04-08T16:00:11.142Z,6.57
2023-04-08T16:02:38.779Z,7.37
2023-04-08T16:05:06.410Z,7.33
2023-04-08T16:07:33.538Z,7.23
2023-04-08T16:10:00.775Z,7.00
2023-04-08T16:12:28.793Z,7.70
2023-04-08T16:14:56.043Z,8.17
2023-04-08T16:17:23.560Z,7.57
2023-04-08T16:19:51.857Z,7.83
2023-04-08T16:22:19.458Z,6.53
2023-04-08T16:24:46.615Z,6.53
2023-04-08T16:27:13.895Z,6.57
2023-04-08T16:29:42.093Z,6.27
2023-04-08T16:32:09.301Z,7.33
2023-04-08T16:34:36.549Z,6.00
2023-04-08T16:37:03.730Z,5.97
2023-04-08T16:39:31.012Z,6.30
2023-04-08T16:41:58.862Z,5.80
2023-04-08T16:44:26.047Z,6.97
2023-04-08T16:46:53.195Z,6.47
2023-04-08T16:49:20.407Z,6.83
2023-04-08T16:51:47.607Z,8.87
2023-04-08T16:54:14.804Z,8.03
2023-04-08T16:56:45.476Z,6.27
2023-04-08T16:59:12.951Z,5.80
2023-04-08T17:01:40.279Z,6.87
2023-04-08T17:04:07.622Z,4.67
2023-04-08T17:06:35.786Z,5.07
2023-04-08T17:09:03.853Z,4.73
2023-04-08T17:11:31.136Z,7.53
2023-04-08T17:13:58.321Z,4.87
2023-04-08T17:16:25.755Z,5.87
2023-04-08T17:18:53.020Z,5.37
2023-04-08T17:21:20.357Z,4.37
2023-04-08T17:23:47.571Z,5.60
2023-04-08T17:26:14.732Z,3.97
2023-04-08T17:28:41.902Z,4.50
2023-04-08T17:31:09.107Z,2.77
2023-04-08T17:33:36.307Z,3.73
2023-04-08T17:36:03.661Z,5.03
2023-04-08T17:38:30.923Z,4.83
2023-04-08T17:40:58.158Z,5.27
2023-04-08T17:43:25.378Z,4.20
2023-04-08T17:45:53.194Z,5.13
2023-04-08T17:48:20.433Z,4.40
2023-04-08T17:50:47.621Z,4.10
2023-04-08T17:53:14.818Z,5.30
2023-04-08T17:55:41.956Z,4.03
2023-04-08T17:58:09.116Z,4.73
2023-04-08T18:00:36.272Z,3.93
2023-04-08T18:03:03.557Z,3.77
2023-04-08T18:05:31.468Z,4.43
2023-04-08T18:07:59.253Z,4.00
2023-04-08T18:10:26.440Z,4.33
2023-04-08T18:12:57.790Z,4.77
2023-04-08T18:15:36.086Z,4.93
2023-04-08T18:18:03.424Z,4.83
2023-04-08T18:20:30.679Z,3.87
2023-04-08T18:23:00.185Z,4.63
2023-04-08T18:25:27.422Z,8.17
2023-04-08T18:27:54.572Z,4.07
2023-04-08T18:30:21.774Z,6.10
2023-04-08T18:32:48.940Z,4.13
2023-04-08T18:35:16.173Z,5.00
2023-04-08T18:37:43.304Z,6.00
2023-04-08T18:40:10.701Z,5.67
2023-04-08T18:42:37.849Z,3.57
2023-04-08T18:45:05.170Z,4.93
2023-04-08T18:47:32.506Z,5.53
2023-04-08T18:49:59.689Z,5.77
2023-04-08T18:52:26.809Z,5.50
2023-04-08T18:54:54.591Z,5.87
2023-04-08T18:57:21.996Z,5.90
2023-04-08T18:59:49.144Z,5.53
2023-04-08T19:02:16.605Z,5.63
2023-04-08T19:04:43.962Z,5.80
2023-04-08T19:07:12.121Z,6.47
2023-04-08T19:09:40.020Z,5.03
2023-04-08T19:12:07.191Z,6.07
2023-04-08T19:14:34.306Z,6.47
2023-04-08T19:17:01.823Z,7.00
2023-04-08T19:19:29.020Z,5.50
2023-04-08T19:21:56.194Z,5.37
2023-04-08T19:24:23.538Z,7.13
2023-04-08T19:26:52.968Z,6.20
2023-04-08T19:29:22.950Z,7.13
2023-04-08T19:31:50.207Z,6.00
2023-04-08T19:34:17.342Z,6.23
2023-04-08T19:36:44.490Z,5.20
2023-04-08T19:39:11.593Z,4.03
2023-04-08T19:41:38.771Z,4.93
2023-04-08T19:44:05.943Z,5.30
2023-04-08T19:46:33.139Z,4.67
2023-04-08T19:49:00.323Z,5.83
2023-04-08T19:51:29.100Z,6.57
2023-04-08T19:53:56.302Z,5.30
2023-04-08T19:56:23.489Z,6.50
2023-04-08T19:58:50.962Z,6.00
2023-04-08T20:01:18.882Z,6.13
2023-04-08T20:03:50.140Z,6.27
2023-04-08T20:06:17.952Z,7.20
2023-04-08T20:08:45.796Z,6.53
2023-04-08T20:11:13.279Z,6.73
2023-04-08T20:13:40.608Z,7.63
2023-04-08T20:16:07.864Z,6.50
2023-04-08T20:18:36.927Z,7.13
2023-04-08T20:21:05.177Z,7.63
2023-04-08T20:23:32.348Z,9.97
2023-04-08T20:25:59.658Z,7.00
2023-04-08T20:28:27.113Z,10.30
2023-04-08T20:30:54.500Z,8.70
2023-04-08T20:33:21.693Z,8.50
2023-04-08T20:35:50.470Z,7.40
2023-04-08T20:38:17.782Z,8.10
2023-04-08T20:40:45.192Z,11.60
2023-04-08T20:43:12.508Z,8.30
2023-04-08T20:45:39.731Z,8.93
2023-04-08T20:48:07.523Z,6.60
2023-04-08T20:50:34.844Z,7.83
2023-04-08T20:53:02.212Z,7.57
2023-04-08T20:55:29.351Z,7.43
2023-04-08T20:57:56.488Z,7.77
2023-04-08T21:00:23.801Z,6.83
2023-04-08T21:02:51.175Z,7.80
2023-04-08T21:05:18.514Z,7.20
2023-04-08T21:07:45.768Z,6.13
2023-04-08T21:10:14.355Z,7.40
2023-04-08T21:12:41.471Z,6.70
2023-04-08T21:15:08.995Z,6.77
2023-04-08T21:17:36.134Z,7.00
2023-04-08T21:20:04.442Z,6.30
2023-04-08T21:22:32.795Z,6.83
2023-04-08T21:24:59.922Z,6.53
2023-04-08T21:27:29.006Z,6.57
2023-04-08T21:29:56.125Z,6.73
2023-04-08T21:32:23.458Z,6.07
2023-04-08T21:34:54.076Z,6.57
2023-04-08T21:37:22.629Z,6.80
2023-04-08T21:39:50.358Z,9.37
2023-04-08T21:42:20.270Z,7.10
2023-04-08T21:44:47.690Z,6.57
2023-04-08T21:47:14.907Z,7.20
2023-04-08T21:49:42.337Z,6.57
2023-04-08T21:52:09.604Z,6.13
2023-04-08T21:54:36.778Z,6.70
2023-04-08T21:57:03.900Z,6.67
2023-04-08T21:59:31.044Z,6.27
2023-04-08T22:01:58.259Z,6.37
2023-04-08T22:04:25.396Z,6.57
2023-04-08T22:06:52.855Z,8.07
2023-04-08T22:09:19.986Z,6.20
2023-04-08T22:11:47.134Z,7.50
2023-04-08T22:14:15.486Z,7.13
2023-04-08T22:16:43.006Z,6.67
2023-04-08T22:19:10.543Z,5.60
2023-04-08T22:21:37.672Z,6.33
2023-04-08T22:24:04.915Z,5.57
2023-04-08T22:26:32.068Z,6.20
2023-04-08T22:28:59.203Z,5.97
2023-04-08T22:31:27.030Z,6.33
2023-04-08T22:33:54.173Z,6.13
2023-04-08T22:36:21.330Z,6.40
2023-04-08T22:38:48.471Z,6.73
2023-04-08T22:41:19.293Z,7.10
2023-04-08T22:43:46.429Z,5.90
2023-04-08T22:46:14.461Z,5.27
2023-04-08T22:48:41.938Z,6.17
2023-04-08T22:51:10.089Z,5.60
2023-04-08T22:53:37.735Z,5.87
2023-04-08T22:56:05.378Z,5.73
2023-04-08T22:58:32.510Z,5.97
2023-04-08T23:00:59.639Z,7.20
2023-04-08T23:03:26.848Z,5.67
2023-04-08T23:05:54.101Z,5.20
2023-04-08T23:08:21.269Z,5.43
2023-04-08T23:10:48.417Z,5.53
2023-04-08T23:13:15.589Z,5.73
2023-04-08T23:15:42.811Z,7.57
2023-04-08T23:18:10.047Z,7.63
2023-04-08T23:20:37.174Z,5.80
2023-04-08T23:23:04.368Z,5.93
2023-04-08T23:25:31.560Z,5.77
2023-04-08T23:27:58.676Z,5.83
2023-04-08T23:30:25.815Z,5.77
2023-04-08T23:32:53.004Z,5.17
2023-04-08T23:35:20.281Z,5.87
2023-04-08T23:37:47.448Z,4.53
2023-04-08T23:40:14.798Z,8.10
2023-04-08T23:42:42.023Z,6.03
2023-04-08T23:45:09.470Z,7.00
2023-04-08T23:47:36.656Z,4.90
2023-04-08T23:50:03.949Z,5.40
2023-04-08T23:52:31.147Z,6.90
2023-04-08T23:54:58.301Z,4.90
2023-04-08T23:57:25.625Z,5.90
2023-04-08T23:59:52.764Z,6.20
